Wetterdaten: aktuell Freitag, 21.01.2022 18:55
Datum Zeit Temperatur Luftfeuchte Luftdruck Regen Zeit Sonne Solar Taupunkt Windchill Windben
21.01.2022 18:55 0,5 C 80 % 1032,4 hPa 0,0 l/m 0 min 0 W/m -2,5 C 0,5 C 4,8 km/h (1 Bft)
21.01.2022 17:55 0,4 C 81 % 1032,6 hPa 0,0 l/m 0 min 0 W/m -2,5 C 0,4 C 8,0 km/h (2 Bft)
21.01.2022 16:55 0,1 C 82 % 1032,3 hPa 0,0 l/m 0 min 0 W/m -2,6 C 0,1 C 8,0 km/h (2 Bft)
21.01.2022 15:55 0,4 C 80 % 1032,2 hPa 0,0 l/m 0 min 19 W/m -2,6 C 0,4 C 0,0 km/h (0 Bft)
21.01.2022 14:55 0,4 C 79 % 1032,1 hPa 0,7 l/m 0 min 28 W/m -2,8 C 0,4 C 4,8 km/h (1 Bft)
21.01.2022 13:50 0,4 C 81 % 1032,1 hPa 0,2 l/m 0 min 148 W/m -2,5 C 0,4 C 0,0 km/h (0 Bft)
21.01.2022 12:50 0,4 C 77 % 1032,2 hPa 0,0 l/m 0 min 105 W/m -3,1 C 0,4 C 8,0 km/h (2 Bft)
21.01.2022 11:50 0,6 C 80 % 1032,5 hPa 0,0 l/m 15 min 181 W/m -2,4 C 0,6 C 6,4 km/h (2 Bft)
21.01.2022 10:50 -0,4 C 83 % 1032,6 hPa 0,0 l/m 0 min 53 W/m -2,9 C -0,4 C 9,7 km/h (2 Bft)
21.01.2022 09:50 -0,8 C 84 % 1031,8 hPa 0,0 l/m 0 min 58 W/m -3,2 C -0,8 C 4,8 km/h (1 Bft)
21.01.2022 08:45 -0,9 C 85 % 1031,8 hPa 0,0 l/m 0 min 19 W/m -3,1 C -0,9 C 3,2 km/h (1 Bft)
21.01.2022 07:45 -0,9 C 86 % 1031,4 hPa 0,0 l/m 0 min 0 W/m -2,9 C -0,9 C 6,4 km/h (2 Bft)
21.01.2022 06:45 -0,7 C 86 % 1031,0 hPa 0,0 l/m 0 min 0 W/m -2,7 C -0,7 C 8,0 km/h (2 Bft)
21.01.2022 05:45 -0,9 C 86 % 1030,5 hPa 0,0 l/m 0 min 0 W/m -2,9 C -0,9 C 8,0 km/h (2 Bft)
21.01.2022 04:45 -0,7 C 85 % 1030,0 hPa 0,0 l/m 0 min 0 W/m -2,9 C -0,7 C 4,8 km/h (1 Bft)
21.01.2022 03:45 -0,4 C 84 % 1029,9 hPa 0,0 l/m 0 min 0 W/m -2,8 C -0,4 C 6,4 km/h (2 Bft)
21.01.2022 02:45 -0,6 C 86 % 1029,9 hPa 0,0 l/m 0 min 0 W/m -2,6 C -0,6 C 4,8 km/h (1 Bft)
21.01.2022 01:45 -0,6 C 87 % 1029,1 hPa 0,0 l/m 0 min 0 W/m -2,5 C -0,6 C 9,7 km/h (2 Bft)
21.01.2022 00:45 0,1 C 78 % 1028,7 hPa 0,0 l/m 0 min 0 W/m -3,3 C 0,1 C 6,4 km/h (2 Bft)
21.01.2022 00:00 0,2 C 76 % 1028,6 hPa 0,0 l/m 0 min 0 W/m -3,5 C 0,2 C 6,4 km/h (2 Bft)
_ Min-Zeit 09:45 12:45 00:30 - - - 00:10 05:05 18:35
Minimum _ -0,9 C 76 % 1028,6 hPa - - - -3,6 C -2,6 C 0,0 km/h (0 Bft)
_ Max-Zeit 15:35 02:15 11:25 14:55 11:45 11:45 17:30 15:35 02:25
Maximum _ 0,7 C 88 % 1032,7 hPa 0,2 l/m 5 min 244 W/m -2,3 C 0,7 C 19,3 km/h
SW (3 Bft)
Durchschnitt _ -0,2 C 83 % 1031,3 hPa #1,0 l/m #15 min. 69 W/m -2,8 C -0,2 C 6,6 km/h (2 Bft)